Time;durP1;ratioP1;P1;durP2;ratioP2;P2;SDS_P1;SDS_P2;PMS_P1;PMS_P2;Temp;Humidity;BMP_temperature;BMP_pressure;BME280_temperature;BME280_humidity;BME280_pressure;Samples;Min_cycle;Max_cycle;Signal;HPM_P1;HPM_P2
2022/01/23 00:38:47;;;;;;;5.33;4.03;;;;;;;;;;5124098;23;20242;-77
2022/01/23 00:41:13;;;;;;;4.47;2.53;;;;;;;;;;4936638;29;20303;-77
2022/01/23 00:43:42;;;;;;;2.73;1.83;;;;;;;;;;4936785;29;20212;-77
2022/01/23 00:46:21;;;;;;;2.43;1.97;;;;;;;;;;4921470;29;20213;-77
2022/01/23 00:51:23;;;;;;;3.00;2.23;;;;;;;;;;4954342;29;20204;-78
2022/01/23 00:53:49;;;;;;;3.03;2.20;;;;;;;;;;4938998;28;20263;-78
2022/01/23 00:56:15;;;;;;;2.90;2.20;;;;;;;;;;4924844;29;20181;-78
2022/01/23 00:58:41;;;;;;;2.13;1.90;;;;;;;;;;4924670;29;20203;-78
2022/01/23 01:01:07;;;;;;;3.43;2.37;;;;;;;;;;4940483;29;20297;-78
2022/01/23 01:03:33;;;;;;;2.90;1.93;;;;;;;;;;4924495;29;20184;-78
2022/01/23 01:06:00;;;;;;;2.90;2.30;;;;;;;;;;4924510;29;20601;-78
2022/01/23 01:08:26;;;;;;;2.47;2.10;;;;;;;;;;4924313;29;20205;-78
2022/01/23 01:13:29;;;;;;;4.27;2.70;;;;;;;;;;4941147;29;20185;-78
2022/01/23 01:16:34;;;;;;;3.70;2.60;;;;;;;;;;4925193;29;20189;-78
2022/01/23 01:33:01;;;;;;;4.53;3.30;;;;;;;;;;4942761;29;20679;-78
2022/01/23 01:37:51;;;;;;;4.60;3.50;;;;;;;;;;4940778;29;20316;-78
2022/01/23 01:40:18;;;;;;;4.40;3.23;;;;;;;;;;4939809;28;20197;-78
2022/01/23 01:42:45;;;;;;;4.60;2.70;;;;;;;;;;4939770;28;20209;-78
2022/01/23 01:45:11;;;;;;;3.27;2.63;;;;;;;;;;4939559;29;20312;-78
2022/01/23 01:47:37;;;;;;;4.03;2.87;;;;;;;;;;4923531;29;20196;-78
2022/01/23 01:50:04;;;;;;;3.10;2.50;;;;;;;;;;4939363;28;20613;-78
2022/01/23 01:52:33;;;;;;;3.90;2.93;;;;;;;;;;4939611;28;20216;-78
2022/01/23 01:55:03;;;;;;;3.63;2.70;;;;;;;;;;4939911;29;20183;-78
2022/01/23 01:57:36;;;;;;;3.67;2.83;;;;;;;;;;4924137;29;20201;-78
2022/01/23 02:03:17;;;;;;;3.97;3.00;;;;;;;;;;4956288;29;20203;-78
2022/01/23 02:10:50;;;;;;;3.50;2.57;;;;;;;;;;4956395;28;20181;-78
2022/01/23 02:13:21;;;;;;;5.63;2.67;;;;;;;;;;4956399;28;20176;-78
2022/01/23 02:51:05;;;;;;;2.73;2.40;;;;;;;;;;4941460;29;20248;-78
2022/01/23 02:53:39;;;;;;;4.17;2.47;;;;;;;;;;4923102;29;20536;-78
2022/01/23 02:56:14;;;;;;;3.03;2.33;;;;;;;;;;4923627;29;20188;-78
2022/01/23 02:58:55;;;;;;;3.93;2.53;;;;;;;;;;4923435;29;20211;-78
2022/01/23 03:01:24;;;;;;;3.60;2.40;;;;;;;;;;4924593;29;20220;-78
2022/01/23 03:03:57;;;;;;;3.03;2.37;;;;;;;;;;4937995;29;20180;-78
2022/01/23 03:14:39;;;;;;;2.90;2.10;;;;;;;;;;4939810;29;20643;-78
2022/01/23 03:30:54;;;;;;;2.77;1.90;;;;;;;;;;4955094;29;20219;-78
2022/01/23 03:33:21;;;;;;;2.93;2.30;;;;;;;;;;4923042;29;20290;-78
2022/01/23 03:35:47;;;;;;;2.33;1.87;;;;;;;;;;4937792;28;20176;-78
2022/01/23 03:38:13;;;;;;;3.53;2.30;;;;;;;;;;4937457;28;20251;-78
2022/01/23 03:40:39;;;;;;;2.53;2.10;;;;;;;;;;4921594;29;20213;-78
2022/01/23 03:43:10;;;;;;;2.90;2.00;;;;;;;;;;4937677;28;20226;-78
2022/01/23 03:50:50;;;;;;;2.40;1.83;;;;;;;;;;4937821;28;20188;-78
2022/01/23 03:53:16;;;;;;;2.50;2.20;;;;;;;;;;4937378;28;20212;-78
2022/01/23 03:55:43;;;;;;;2.43;2.00;;;;;;;;;;4921320;29;20729;-78
2022/01/23 03:58:09;;;;;;;2.60;1.90;;;;;;;;;;4937144;28;20291;-78
2022/01/23 04:00:35;;;;;;;3.53;2.10;;;;;;;;;;4937135;28;20223;-78
2022/01/23 04:03:01;;;;;;;3.00;1.93;;;;;;;;;;4937096;28;20184;-78
2022/01/23 04:05:27;;;;;;;2.60;2.20;;;;;;;;;;4936832;28;20194;-78
2022/01/23 04:07:53;;;;;;;3.07;2.13;;;;;;;;;;4937200;28;20779;-78
2022/01/23 04:10:22;;;;;;;3.20;2.20;;;;;;;;;;4937367;28;20274;-78
2022/01/23 04:12:53;;;;;;;3.60;2.27;;;;;;;;;;4936969;29;20180;-78
2022/01/23 04:15:42;;;;;;;3.40;2.13;;;;;;;;;;4936916;29;20184;-78
2022/01/23 04:34:37;;;;;;;3.57;2.50;;;;;;;;;;4945979;28;20246;-78
2022/01/23 04:45:27;;;;;;;2.47;2.00;;;;;;;;;;4945971;29;20291;-78
2022/01/23 05:02:01;;;;;;;3.87;2.20;;;;;;;;;;4945825;29;20208;-78
2022/01/23 05:06:47;;;;;;;4.13;2.20;;;;;;;;;;4943276;29;20204;-78
2022/01/23 05:09:14;;;;;;;3.40;2.33;;;;;;;;;;4943096;29;20199;-78
2022/01/23 05:11:47;;;;;;;2.87;2.20;;;;;;;;;;4942853;28;20551;-78
2022/01/23 05:14:13;;;;;;;2.57;2.00;;;;;;;;;;4942648;28;20563;-78
2022/01/23 05:16:39;;;;;;;2.40;2.10;;;;;;;;;;4943174;28;20235;-78
2022/01/23 05:19:05;;;;;;;2.60;2.13;;;;;;;;;;4942994;28;20207;-78
2022/01/23 05:24:14;;;;;;;1.83;1.47;;;;;;;;;;4945138;29;20184;-78
2022/01/23 05:26:46;;;;;;;2.20;1.73;;;;;;;;;;4942560;28;20243;-78
2022/01/23 05:29:13;;;;;;;2.93;1.70;;;;;;;;;;4942954;29;20552;-78
2022/01/23 05:31:39;;;;;;;2.23;1.83;;;;;;;;;;4927197;28;20279;-78
2022/01/23 05:34:05;;;;;;;2.23;1.87;;;;;;;;;;4942618;28;20220;-78
2022/01/23 05:36:31;;;;;;;1.90;1.60;;;;;;;;;;4942716;28;20188;-78
2022/01/23 05:38:58;;;;;;;3.90;2.00;;;;;;;;;;4940770;28;20229;-78
2022/01/23 05:41:25;;;;;;;2.20;1.70;;;;;;;;;;4939149;28;20216;-78
2022/01/23 05:43:51;;;;;;;2.80;1.90;;;;;;;;;;4939527;29;20636;-78
2022/01/23 05:46:17;;;;;;;2.37;2.00;;;;;;;;;;4924135;29;20185;-78
2022/01/23 05:48:43;;;;;;;2.50;1.87;;;;;;;;;;4939688;28;20195;-78
2022/01/23 05:51:12;;;;;;;2.77;1.80;;;;;;;;;;4939534;28;20187;-78
2022/01/23 05:53:39;;;;;;;2.50;1.90;;;;;;;;;;4923722;28;20188;-78
2022/01/23 05:56:05;;;;;;;3.70;1.77;;;;;;;;;;4939558;28;20298;-78
2022/01/23 05:58:31;;;;;;;2.60;1.87;;;;;;;;;;4939250;28;20306;-78
2022/01/23 06:00:57;;;;;;;1.83;1.53;;;;;;;;;;4939233;28;20667;-78
2022/01/23 06:03:23;;;;;;;2.30;1.80;;;;;;;;;;4923670;29;20192;-78
2022/01/23 06:05:49;;;;;;;3.37;1.70;;;;;;;;;;4923363;29;20712;-78
2022/01/23 06:08:15;;;;;;;3.40;1.80;;;;;;;;;;4939059;28;20204;-78
2022/01/23 06:10:55;;;;;;;3.27;1.90;;;;;;;;;;4923927;29;20188;-78
2022/01/23 06:13:22;;;;;;;1.87;1.50;;;;;;;;;;4939659;29;20222;-79
2022/01/23 06:15:48;;;;;;;2.03;1.70;;;;;;;;;;4939359;28;20281;-78
2022/01/23 06:18:14;;;;;;;4.60;1.87;;;;;;;;;;4923525;29;20274;-78
2022/01/23 06:20:41;;;;;;;2.47;1.83;;;;;;;;;;4923415;28;20266;-78
2022/01/23 06:23:07;;;;;;;2.70;1.83;;;;;;;;;;4923598;29;20195;-78
2022/01/23 06:25:35;;;;;;;3.03;1.90;;;;;;;;;;4923271;29;20191;-78
2022/01/23 06:28:04;;;;;;;2.90;2.00;;;;;;;;;;4924089;29;20208;-78
2022/01/23 06:30:30;;;;;;;1.90;1.50;;;;;;;;;;4923157;29;20190;-78
2022/01/23 06:32:56;;;;;;;3.03;1.80;;;;;;;;;;4923117;29;20195;-79
2022/01/23 06:35:22;;;;;;;3.20;1.90;;;;;;;;;;4922748;28;20650;-79
2022/01/23 06:37:48;;;;;;;2.73;2.07;;;;;;;;;;4938867;28;20223;-79
2022/01/23 06:40:14;;;;;;;2.40;1.90;;;;;;;;;;4938960;28;20188;-79
2022/01/23 06:42:40;;;;;;;3.33;2.23;;;;;;;;;;4938824;28;20211;-79
2022/01/23 06:45:07;;;;;;;2.20;2.00;;;;;;;;;;4938609;28;20191;-78
2022/01/23 06:47:33;;;;;;;2.63;2.03;;;;;;;;;;4922743;29;20200;-78
2022/01/23 06:49:59;;;;;;;2.30;2.00;;;;;;;;;;4938450;28;20191;-78
2022/01/23 06:52:25;;;;;;;3.47;2.30;;;;;;;;;;4957984;23;20227;-76
2022/01/23 06:54:51;;;;;;;2.73;1.90;;;;;;;;;;4935064;29;20173;-76
2022/01/23 06:57:17;;;;;;;2.37;1.80;;;;;;;;;;4935259;29;20185;-76
2022/01/23 06:59:43;;;;;;;2.50;1.80;;;;;;;;;;4919320;29;20184;-75
2022/01/23 07:02:09;;;;;;;1.93;1.53;;;;;;;;;;4916216;29;20276;-75
2022/01/23 07:04:35;;;;;;;2.53;1.77;;;;;;;;;;4915942;29;20281;-76
2022/01/23 07:07:02;;;;;;;3.27;1.90;;;;;;;;;;4916105;29;20180;-76
2022/01/23 07:09:28;;;;;;;2.90;1.80;;;;;;;;;;4916283;29;20181;-75
2022/01/23 07:11:54;;;;;;;2.53;1.63;;;;;;;;;;4915754;29;20212;-75
2022/01/23 07:14:20;;;;;;;2.67;1.93;;;;;;;;;;4915780;29;20189;-75
2022/01/23 07:16:46;;;;;;;2.57;1.93;;;;;;;;;;4915692;29;20724;-76
2022/01/23 07:19:12;;;;;;;2.83;1.70;;;;;;;;;;4915593;29;20220;-76
2022/01/23 07:21:38;;;;;;;2.03;1.43;;;;;;;;;;4915453;29;20691;-75
2022/01/23 07:24:04;;;;;;;2.27;1.50;;;;;;;;;;4915514;29;20182;-75
2022/01/23 07:26:31;;;;;;;2.60;1.90;;;;;;;;;;4916805;29;20565;-75
2022/01/23 07:29:00;;;;;;;2.40;1.90;;;;;;;;;;4915721;29;20184;-76
2022/01/23 07:34:07;;;;;;;3.03;2.07;;;;;;;;;;4916770;29;20181;-76
2022/01/23 07:36:34;;;;;;;3.30;2.07;;;;;;;;;;4915507;29;20281;-76
2022/01/23 07:39:00;;;;;;;3.40;2.00;;;;;;;;;;4915232;29;20591;-75
2022/01/23 07:41:26;;;;;;;2.93;1.90;;;;;;;;;;4915333;29;20299;-76
2022/01/23 07:43:52;;;;;;;3.07;2.23;;;;;;;;;;4915279;29;20281;-76
2022/01/23 07:46:19;;;;;;;16.07;7.93;;;;;;;;;;4915131;29;20186;-76
2022/01/23 07:48:45;;;;;;;9.87;4.97;;;;;;;;;;4915650;29;20181;-76
2022/01/23 07:51:11;;;;;;;5.23;3.17;;;;;;;;;;4915149;29;20217;-77
2022/01/23 07:53:37;;;;;;;3.80;2.70;;;;;;;;;;4915336;29;20245;-77
2022/01/23 07:56:03;;;;;;;3.50;2.30;;;;;;;;;;4915333;29;20273;-77
2022/01/23 07:58:30;;;;;;;3.60;2.00;;;;;;;;;;4915087;29;20179;-76
2022/01/23 08:00:56;;;;;;;2.73;2.13;;;;;;;;;;4915310;29;20731;-77
2022/01/23 08:03:22;;;;;;;2.63;1.77;;;;;;;;;;4914584;29;20182;-76
2022/01/23 08:05:48;;;;;;;2.70;1.97;;;;;;;;;;4915106;29;20184;-76
2022/01/23 08:08:14;;;;;;;3.50;2.73;;;;;;;;;;4915706;29;20240;-78
2022/01/23 08:10:40;;;;;;;4.10;2.90;;;;;;;;;;4915662;29;20178;-77
2022/01/23 08:13:06;;;;;;;6.30;3.50;;;;;;;;;;4915560;29;20189;-77
2022/01/23 08:15:33;;;;;;;6.10;4.30;;;;;;;;;;4915092;29;20190;-77
2022/01/23 08:18:00;;;;;;;5.97;3.87;;;;;;;;;;4915727;29;20198;-77
2022/01/23 08:20:26;;;;;;;6.93;4.77;;;;;;;;;;4915149;29;20187;-76
2022/01/23 08:22:52;;;;;;;8.00;4.17;;;;;;;;;;4914913;29;20256;-76
2022/01/23 08:25:18;;;;;;;6.83;4.03;;;;;;;;;;4914899;29;20193;-76
2022/01/23 08:27:44;;;;;;;7.80;4.83;;;;;;;;;;4914722;29;20178;-76
2022/01/23 08:30:13;;;;;;;6.67;4.50;;;;;;;;;;4914844;29;20207;-77
2022/01/23 08:32:39;;;;;;;9.47;4.93;;;;;;;;;;4915024;29;20202;-76
2022/01/23 08:35:05;;;;;;;9.57;5.47;;;;;;;;;;4914630;29;20646;-76
2022/01/23 08:37:32;;;;;;;343.63;78.47;;;;;;;;;;4914549;29;20265;-73
2022/01/23 08:39:58;;;;;;;86.33;21.03;;;;;;;;;;4914709;29;20185;-74
2022/01/23 08:42:24;;;;;;;70.73;21.27;;;;;;;;;;4914492;29;20276;-74
2022/01/23 08:44:50;;;;;;;43.83;15.83;;;;;;;;;;4914484;29;20218;-74
2022/01/23 08:47:17;;;;;;;43.67;21.60;;;;;;;;;;4914812;29;20182;-74
2022/01/23 08:49:48;;;;;;;4.87;4.37;;;;;;;;;;4915178;29;20206;-77
2022/01/23 08:52:17;;;;;;;7.20;5.83;;;;;;;;;;4915086;29;20684;-77
2022/01/23 08:54:44;;;;;;;5.67;4.10;;;;;;;;;;4914793;29;20205;-77
2022/01/23 08:57:11;;;;;;;5.60;3.93;;;;;;;;;;4915368;29;20288;-78
2022/01/23 08:59:37;;;;;;;4.30;3.90;;;;;;;;;;4915625;29;20280;-77
2022/01/23 09:02:03;;;;;;;5.93;4.37;;;;;;;;;;4915413;29;20215;-77
2022/01/23 09:04:29;;;;;;;7.27;4.60;;;;;;;;;;4916419;29;20530;-78
2022/01/23 09:06:55;;;;;;;4.80;4.30;;;;;;;;;;4915180;29;20186;-77
2022/01/23 09:09:23;;;;;;;6.93;4.40;;;;;;;;;;4915531;29;20648;-77
2022/01/23 09:11:58;;;;;;;5.23;4.40;;;;;;;;;;4915297;29;20218;-77
2022/01/23 09:14:25;;;;;;;6.30;4.80;;;;;;;;;;4915784;29;20221;-78
2022/01/23 09:16:52;;;;;;;6.43;5.60;;;;;;;;;;4918445;29;20190;-77
2022/01/23 09:19:19;;;;;;;7.10;5.03;;;;;;;;;;4918601;29;20701;-77
2022/01/23 09:21:46;;;;;;;8.47;5.07;;;;;;;;;;4918332;29;20212;-77
2022/01/23 09:24:12;;;;;;;5.87;4.40;;;;;;;;;;4917896;29;20267;-77
2022/01/23 09:26:39;;;;;;;5.83;4.87;;;;;;;;;;4918155;29;20181;-78
2022/01/23 09:29:15;;;;;;;10.30;8.33;;;;;;;;;;4918378;29;20290;-77
2022/01/23 09:32:00;;;;;;;13.40;8.67;;;;;;;;;;4918331;29;20742;-78
2022/01/23 09:34:27;;;;;;;10.47;6.70;;;;;;;;;;4920652;29;20240;-77
2022/01/23 09:36:57;;;;;;;9.13;6.63;;;;;;;;;;4918197;29;20425;-77
2022/01/23 09:39:23;;;;;;;7.10;5.00;;;;;;;;;;4918368;29;20210;-77
2022/01/23 09:41:51;;;;;;;6.77;4.40;;;;;;;;;;4918120;29;20207;-77
2022/01/23 09:44:18;;;;;;;7.27;5.47;;;;;;;;;;4917810;29;20171;-77
2022/01/23 09:46:45;;;;;;;7.97;5.73;;;;;;;;;;4918265;29;20182;-77
2022/01/23 09:49:13;;;;;;;5.90;4.70;;;;;;;;;;4917966;29;20182;-77
2022/01/23 09:51:41;;;;;;;7.43;4.40;;;;;;;;;;4917854;29;20226;-77
2022/01/23 09:54:10;;;;;;;12.80;7.57;;;;;;;;;;4917721;29;20182;-78
2022/01/23 09:56:36;;;;;;;12.47;9.13;;;;;;;;;;4917715;29;20205;-78
2022/01/23 09:59:02;;;;;;;23.40;14.17;;;;;;;;;;4917607;29;20183;-78
2022/01/23 10:01:28;;;;;;;9.50;7.20;;;;;;;;;;4918579;29;20583;-78
2022/01/23 10:03:54;;;;;;;8.77;5.37;;;;;;;;;;4917272;29;20713;-78
2022/01/23 10:06:20;;;;;;;7.13;5.10;;;;;;;;;;4917443;29;20209;-78
2022/01/23 10:08:47;;;;;;;7.07;4.90;;;;;;;;;;4917270;29;20234;-78
2022/01/23 10:11:14;;;;;;;7.17;4.57;;;;;;;;;;4917272;29;20202;-78
2022/01/23 10:13:41;;;;;;;8.00;5.00;;;;;;;;;;4916927;29;20554;-78
2022/01/23 10:19:11;;;;;;;6.27;4.00;;;;;;;;;;4918982;29;20647;-78
2022/01/23 10:21:38;;;;;;;5.70;3.80;;;;;;;;;;4917709;29;20213;-74
2022/01/23 10:24:05;;;;;;;4.00;3.00;;;;;;;;;;4916962;29;20174;-75
2022/01/23 10:26:53;;;;;;;5.00;3.50;;;;;;;;;;4916839;29;20204;-73
2022/01/23 10:29:25;;;;;;;5.00;3.10;;;;;;;;;;4917128;29;20185;-73
2022/01/23 10:32:11;;;;;;;4.17;3.07;;;;;;;;;;4917061;29;20207;-80
2022/01/23 10:34:55;;;;;;;3.77;2.80;;;;;;;;;;4917176;29;20182;-79
2022/01/23 10:37:32;;;;;;;7.33;5.70;;;;;;;;;;4917176;29;20184;-74
2022/01/23 10:39:59;;;;;;;5.97;5.20;;;;;;;;;;4917024;29;20193;-73
2022/01/23 10:47:59;;;;;;;5.23;3.60;;;;;;;;;;4918373;29;20197;-74
2022/01/23 10:50:26;;;;;;;7.00;4.77;;;;;;;;;;4917989;29;20166;-74
2022/01/23 10:52:53;;;;;;;5.20;3.93;;;;;;;;;;4916816;29;20210;-74
2022/01/23 10:55:24;;;;;;;6.43;4.83;;;;;;;;;;4917004;29;20182;-74
2022/01/23 10:57:51;;;;;;;5.83;4.27;;;;;;;;;;4916833;29;20634;-74
2022/01/23 11:00:25;;;;;;;5.77;4.43;;;;;;;;;;4916544;29;20205;-74
2022/01/23 11:02:52;;;;;;;4.30;3.47;;;;;;;;;;4917223;29;20210;-77
2022/01/23 11:05:19;;;;;;;6.77;3.30;;;;;;;;;;4917523;29;20186;-79
2022/01/23 11:07:47;;;;;;;4.57;3.67;;;;;;;;;;4916711;29;20181;-77
2022/01/23 11:10:18;;;;;;;4.80;3.73;;;;;;;;;;4916623;29;20237;-78
2022/01/23 11:18:22;;;;;;;4.70;3.90;;;;;;;;;;4917494;29;20215;-77
2022/01/23 11:20:49;;;;;;;4.20;3.37;;;;;;;;;;4916132;29;20197;-77
2022/01/23 11:23:22;;;;;;;9.60;6.80;;;;;;;;;;4916077;29;20206;-74
2022/01/23 11:25:57;;;;;;;11.43;6.70;;;;;;;;;;4917524;29;20176;-74
2022/01/23 11:28:31;;;;;;;6.40;5.43;;;;;;;;;;4916006;29;20205;-73
2022/01/23 11:30:58;;;;;;;4.13;3.40;;;;;;;;;;4916564;29;20214;-75
2022/01/23 11:33:24;;;;;;;4.07;3.40;;;;;;;;;;4916027;29;20209;-77
2022/01/23 11:35:50;;;;;;;4.40;3.97;;;;;;;;;;4916247;29;20182;-77
2022/01/23 11:38:19;;;;;;;4.70;3.50;;;;;;;;;;4915237;29;20208;-77
2022/01/23 11:54:37;;;;;;;5.53;4.53;;;;;;;;;;4916674;29;20628;-77
2022/01/23 11:57:03;;;;;;;9.83;6.23;;;;;;;;;;4915568;29;20593;-77
2022/01/23 11:59:35;;;;;;;4.97;3.53;;;;;;;;;;4915774;29;20187;-77
2022/01/23 12:02:11;;;;;;;2.80;2.40;;;;;;;;;;4915557;29;20218;-77
2022/01/23 12:04:38;;;;;;;2.90;2.60;;;;;;;;;;4915314;29;20182;-77
2022/01/23 12:07:15;;;;;;;3.70;2.40;;;;;;;;;;4915941;29;20294;-77
2022/01/23 12:10:04;;;;;;;2.50;2.30;;;;;;;;;;4915382;29;20177;-77
2022/01/23 12:12:43;;;;;;;2.67;2.27;;;;;;;;;;4915259;29;20213;-77
2022/01/23 12:21:31;;;;;;;4.00;2.40;;;;;;;;;;4916492;29;20211;-77
2022/01/23 12:24:05;;;;;;;3.00;2.07;;;;;;;;;;4915472;29;20259;-77
2022/01/23 12:26:32;;;;;;;2.17;1.97;;;;;;;;;;4915197;29;20185;-77
2022/01/23 12:29:11;;;;;;;10.47;6.00;;;;;;;;;;4916428;29;20256;-77
2022/01/23 12:31:37;;;;;;;23.17;17.50;;;;;;;;;;4915533;29;20235;-76
2022/01/23 12:34:03;;;;;;;38.27;26.37;;;;;;;;;;4914948;29;20236;-77
2022/01/23 12:36:34;;;;;;;4.07;3.13;;;;;;;;;;4915319;29;20192;-77
2022/01/23 12:39:09;;;;;;;4.37;2.27;;;;;;;;;;4915142;29;20187;-77
2022/01/23 12:41:47;;;;;;;9.90;7.37;;;;;;;;;;4915023;29;20207;-77
2022/01/23 12:44:26;;;;;;;7.13;5.30;;;;;;;;;;4915377;29;20232;-77
2022/01/23 12:47:00;;;;;;;6.83;4.60;;;;;;;;;;4915428;29;20234;-77
2022/01/23 12:49:28;;;;;;;6.87;5.57;;;;;;;;;;4917174;29;20186;-77
2022/01/23 12:51:57;;;;;;;6.50;4.73;;;;;;;;;;4968794;23;20237;-76
2022/01/23 12:54:31;;;;;;;2.90;2.60;;;;;;;;;;4959464;29;20177;-76
2022/01/23 12:57:04;;;;;;;3.47;2.40;;;;;;;;;;4926509;29;20192;-77
2022/01/23 12:59:34;;;;;;;2.03;1.83;;;;;;;;;;4940723;29;20182;-77
2022/01/23 13:02:07;;;;;;;3.53;2.50;;;;;;;;;;4921955;29;20210;-77
2022/01/23 13:04:35;;;;;;;2.87;2.20;;;;;;;;;;4937406;29;20232;-78
2022/01/23 13:10:38;;;;;;;3.13;2.57;;;;;;;;;;4938749;29;20170;-77
2022/01/23 13:13:17;;;;;;;2.50;2.13;;;;;;;;;;4937767;29;20206;-77
2022/01/23 13:16:23;;;;;;;2.93;2.10;;;;;;;;;;4921949;29;20198;-77
2022/01/23 13:27:50;;;;;;;3.10;2.37;;;;;;;;;;4943157;29;20348;-78
2022/01/23 13:30:19;;;;;;;3.67;2.50;;;;;;;;;;4937277;29;20191;-77
2022/01/23 13:32:47;;;;;;;3.47;2.20;;;;;;;;;;4937993;29;20202;-76
2022/01/23 13:35:15;;;;;;;5.03;3.57;;;;;;;;;;4938587;29;20183;-75
2022/01/23 13:37:43;;;;;;;5.13;3.50;;;;;;;;;;4938907;29;20234;-75
2022/01/23 13:40:15;;;;;;;5.27;4.47;;;;;;;;;;4940035;29;20175;-76
2022/01/23 14:02:19;;;;;;;2.47;1.30;;;;;;;;;;4937650;29;20201;-76
2022/01/23 14:04:50;;;;;;;2.07;1.43;;;;;;;;;;4920595;29;20192;-75
2022/01/23 14:07:27;;;;;;;2.40;1.60;;;;;;;;;;4936561;29;20183;-75
2022/01/23 14:09:54;;;;;;;2.77;1.43;;;;;;;;;;4936794;29;20544;-75
2022/01/23 14:12:21;;;;;;;2.57;1.40;;;;;;;;;;4936938;29;20220;-75
2022/01/23 14:15:02;;;;;;;1.80;1.47;;;;;;;;;;4936605;29;20661;-76
2022/01/23 14:20:37;;;;;;;1.70;1.60;;;;;;;;;;4937717;29;20195;-76
2022/01/23 14:23:11;;;;;;;2.00;1.47;;;;;;;;;;4920542;29;20202;-75
2022/01/23 14:25:43;;;;;;;3.03;1.80;;;;;;;;;;4936015;29;20250;-75
2022/01/23 14:28:12;;;;;;;2.10;1.83;;;;;;;;;;4920338;29;20577;-76
2022/01/23 14:31:11;;;;;;;3.27;1.90;;;;;;;;;;4936110;29;20210;-77
2022/01/23 14:33:37;;;;;;;2.30;1.77;;;;;;;;;;4919668;29;20199;-75
2022/01/23 14:36:33;;;;;;;1.93;1.70;;;;;;;;;;4936174;29;20588;-75
2022/01/23 14:39:04;;;;;;;2.57;2.00;;;;;;;;;;4915886;29;20277;-76
2022/01/23 14:41:35;;;;;;;3.70;2.50;;;;;;;;;;4919948;29;20209;-75
2022/01/23 14:44:05;;;;;;;13.17;7.77;;;;;;;;;;4935724;29;20182;-76
2022/01/23 14:46:32;;;;;;;10.60;8.10;;;;;;;;;;4920301;29;20172;-76
2022/01/23 14:49:09;;;;;;;16.23;10.90;;;;;;;;;;4936022;29;20193;-76
2022/01/23 14:51:37;;;;;;;5.07;3.53;;;;;;;;;;4935872;29;20755;-76
2022/01/23 14:54:03;;;;;;;7.23;4.17;;;;;;;;;;4935595;29;20187;-75
2022/01/23 14:56:31;;;;;;;2.70;2.30;;;;;;;;;;4920010;29;20175;-75
2022/01/23 14:58:57;;;;;;;2.70;2.00;;;;;;;;;;4919589;29;20194;-76
2022/01/23 15:01:23;;;;;;;2.97;2.47;;;;;;;;;;4919055;29;20199;-76
2022/01/23 15:03:52;;;;;;;3.00;2.30;;;;;;;;;;4918937;29;20186;-76
2022/01/23 15:06:19;;;;;;;3.47;2.93;;;;;;;;;;4919440;29;20209;-76
2022/01/23 15:08:46;;;;;;;2.20;2.00;;;;;;;;;;4935010;29;20668;-76
2022/01/23 15:11:12;;;;;;;2.63;2.07;;;;;;;;;;4918827;29;20178;-76
2022/01/23 15:13:38;;;;;;;2.43;2.17;;;;;;;;;;4918928;29;20286;-76
2022/01/23 15:16:04;;;;;;;2.80;2.40;;;;;;;;;;4934773;29;20220;-76
2022/01/23 15:18:30;;;;;;;2.23;2.00;;;;;;;;;;4919003;29;20183;-76
2022/01/23 15:20:56;;;;;;;2.47;2.00;;;;;;;;;;4934760;29;20228;-76
2022/01/23 15:23:22;;;;;;;3.37;2.30;;;;;;;;;;4918890;29;20270;-76
2022/01/23 15:25:48;;;;;;;2.60;2.03;;;;;;;;;;4918911;29;20278;-75
2022/01/23 15:28:15;;;;;;;3.50;2.30;;;;;;;;;;4918842;29;20268;-75
2022/01/23 15:30:43;;;;;;;2.40;2.00;;;;;;;;;;4935374;29;20219;-76
2022/01/23 15:33:09;;;;;;;2.80;2.07;;;;;;;;;;4935227;29;20575;-76
2022/01/23 15:35:37;;;;;;;3.03;2.20;;;;;;;;;;4935042;29;20606;-77
2022/01/23 15:38:03;;;;;;;3.50;2.20;;;;;;;;;;4919438;29;20189;-76
2022/01/23 15:40:29;;;;;;;4.73;2.23;;;;;;;;;;4914565;29;20200;-76
2022/01/23 15:42:56;;;;;;;2.70;2.17;;;;;;;;;;4934150;29;20201;-77
2022/01/23 15:45:24;;;;;;;3.10;2.80;;;;;;;;;;4937359;29;20173;-77
2022/01/23 15:47:51;;;;;;;3.97;2.60;;;;;;;;;;4954611;29;20181;-82
2022/01/23 15:50:19;;;;;;;3.40;2.83;;;;;;;;;;4938289;29;20180;-81
2022/01/23 15:52:45;;;;;;;4.00;3.00;;;;;;;;;;4953919;29;20303;-81
2022/01/23 15:55:12;;;;;;;4.60;2.70;;;;;;;;;;4937782;29;20364;-81
2022/01/23 15:57:38;;;;;;;3.63;3.00;;;;;;;;;;4940344;29;20185;-80
2022/01/23 16:00:05;;;;;;;3.20;2.80;;;;;;;;;;4918838;29;20185;-81
2022/01/23 16:02:31;;;;;;;4.47;3.40;;;;;;;;;;4918738;29;20678;-81
2022/01/23 16:04:59;;;;;;;5.03;3.57;;;;;;;;;;4902922;29;20179;-81
2022/01/23 16:07:25;;;;;;;6.13;4.00;;;;;;;;;;4903301;29;20187;-84
2022/01/23 16:09:52;;;;;;;6.80;4.73;;;;;;;;;;4919013;29;20530;-79
2022/01/23 16:12:18;;;;;;;5.03;4.37;;;;;;;;;;4919011;29;20206;-78
2022/01/23 16:14:44;;;;;;;3.10;2.53;;;;;;;;;;4903261;29;20187;-78
2022/01/23 16:20:14;;;;;;;2.37;2.07;;;;;;;;;;4936041;29;20200;-78
2022/01/23 16:22:41;;;;;;;3.00;1.87;;;;;;;;;;4918681;29;20299;-78
2022/01/23 16:25:08;;;;;;;3.10;1.80;;;;;;;;;;4902536;29;20188;-78
2022/01/23 16:27:34;;;;;;;2.23;1.80;;;;;;;;;;4919204;29;20180;-78
2022/01/23 16:30:01;;;;;;;1.97;1.83;;;;;;;;;;4901714;29;20198;-78
2022/01/23 16:32:27;;;;;;;2.47;1.90;;;;;;;;;;4917953;29;20248;-78
2022/01/23 16:34:53;;;;;;;2.17;1.80;;;;;;;;;;4902341;29;20183;-78
2022/01/23 16:37:19;;;;;;;2.10;1.90;;;;;;;;;;4902313;29;20187;-79
2022/01/23 16:39:45;;;;;;;2.63;1.80;;;;;;;;;;4902463;29;20192;-79
2022/01/23 16:42:11;;;;;;;2.73;1.87;;;;;;;;;;4902287;29;20234;-80
2022/01/23 16:44:37;;;;;;;3.50;2.40;;;;;;;;;;4918248;29;20178;-79
2022/01/23 16:47:04;;;;;;;2.87;2.40;;;;;;;;;;4902751;29;20205;-79
2022/01/23 16:49:30;;;;;;;3.07;2.10;;;;;;;;;;4918397;29;20175;-80
2022/01/23 16:51:57;;;;;;;3.20;1.93;;;;;;;;;;4935206;29;20297;-80
2022/01/23 16:54:23;;;;;;;2.13;1.90;;;;;;;;;;4902279;29;20253;-79
2022/01/23 16:56:49;;;;;;;2.50;2.00;;;;;;;;;;4918289;29;20215;-79
2022/01/23 16:59:15;;;;;;;3.03;2.17;;;;;;;;;;4918607;29;20185;-79
2022/01/23 17:01:46;;;;;;;2.70;2.27;;;;;;;;;;4915950;29;20312;-79
2022/01/23 17:04:13;;;;;;;4.10;2.60;;;;;;;;;;4915427;29;20187;-79
2022/01/23 17:06:39;;;;;;;2.90;2.10;;;;;;;;;;4915115;29;20215;-79
2022/01/23 17:09:06;;;;;;;2.53;1.87;;;;;;;;;;4903102;29;20193;-79
2022/01/23 17:11:32;;;;;;;2.67;2.03;;;;;;;;;;4918768;29;20304;-79
2022/01/23 17:13:58;;;;;;;2.60;1.70;;;;;;;;;;4934355;29;20187;-79
2022/01/23 17:16:24;;;;;;;3.33;2.10;;;;;;;;;;4934481;28;20192;-79
2022/01/23 17:18:51;;;;;;;2.67;2.20;;;;;;;;;;4934490;29;20189;-79
2022/01/23 17:21:20;;;;;;;3.00;2.40;;;;;;;;;;4933904;29;20233;-79
2022/01/23 17:23:47;;;;;;;2.97;2.10;;;;;;;;;;4934002;28;20164;-79
2022/01/23 17:26:13;;;;;;;3.53;2.27;;;;;;;;;;4918914;29;20197;-79
2022/01/23 17:28:40;;;;;;;2.53;1.87;;;;;;;;;;4935046;29;20184;-79
2022/01/23 17:31:05;;;;;;;2.57;1.90;;;;;;;;;;4934755;29;20185;-79
2022/01/23 17:33:31;;;;;;;1.90;1.73;;;;;;;;;;4935795;29;20183;-79
2022/01/23 17:35:58;;;;;;;3.03;2.07;;;;;;;;;;4921059;29;20213;-79
2022/01/23 17:38:24;;;;;;;2.00;1.80;;;;;;;;;;4937942;28;20182;-79
2022/01/23 17:40:50;;;;;;;2.60;2.20;;;;;;;;;;4938025;29;20199;-79
2022/01/23 17:43:16;;;;;;;2.83;2.20;;;;;;;;;;4921764;29;20591;-79
2022/01/23 17:45:53;;;;;;;3.67;2.43;;;;;;;;;;4938096;29;20181;-78
2022/01/23 17:51:00;;;;;;;3.83;2.73;;;;;;;;;;4940864;29;20241;-78
2022/01/23 17:53:26;;;;;;;3.53;2.30;;;;;;;;;;4923666;29;20195;-79
2022/01/23 17:55:52;;;;;;;2.93;2.10;;;;;;;;;;4939696;29;20182;-79
2022/01/23 17:58:18;;;;;;;3.20;2.30;;;;;;;;;;4923632;29;20196;-79
2022/01/23 18:00:44;;;;;;;3.43;2.30;;;;;;;;;;4923129;29;20189;-79
2022/01/23 18:03:14;;;;;;;3.13;2.60;;;;;;;;;;4938862;29;20209;-78
2022/01/23 18:05:41;;;;;;;3.00;2.20;;;;;;;;;;4938834;29;20243;-79
2022/01/23 18:08:07;;;;;;;3.00;2.23;;;;;;;;;;4939316;29;20178;-78
2022/01/23 18:10:33;;;;;;;3.53;2.40;;;;;;;;;;4923257;29;20197;-78
2022/01/23 18:13:01;;;;;;;3.23;2.50;;;;;;;;;;4922310;29;20550;-79
2022/01/23 18:15:27;;;;;;;3.20;2.60;;;;;;;;;;4922661;29;20191;-79
2022/01/23 18:17:53;;;;;;;3.60;2.43;;;;;;;;;;4938456;28;20233;-79
2022/01/23 18:20:19;;;;;;;3.10;2.10;;;;;;;;;;4923463;29;20191;-79
2022/01/23 18:22:46;;;;;;;3.37;2.90;;;;;;;;;;4938055;28;20211;-78
2022/01/23 18:25:12;;;;;;;3.27;2.67;;;;;;;;;;4938100;29;20206;-79
2022/01/23 18:27:39;;;;;;;3.93;3.10;;;;;;;;;;4922728;29;20258;-79
2022/01/23 18:30:08;;;;;;;4.50;2.93;;;;;;;;;;4937920;28;20181;-79
2022/01/23 18:32:34;;;;;;;4.40;3.13;;;;;;;;;;4916885;29;20214;-79
2022/01/23 18:35:00;;;;;;;4.93;3.40;;;;;;;;;;4937887;29;20222;-79
2022/01/23 18:37:26;;;;;;;4.57;3.70;;;;;;;;;;4922254;29;20181;-79
2022/01/23 18:39:52;;;;;;;5.13;3.77;;;;;;;;;;4922476;29;20271;-79
2022/01/23 18:42:19;;;;;;;5.90;4.37;;;;;;;;;;4937863;29;20206;-79
2022/01/23 18:44:45;;;;;;;6.93;4.83;;;;;;;;;;4922405;29;20178;-78
2022/01/23 18:47:11;;;;;;;6.23;4.57;;;;;;;;;;4922232;29;20182;-78
2022/01/23 18:49:41;;;;;;;7.20;4.50;;;;;;;;;;4913671;29;20718;-78
2022/01/23 18:52:07;;;;;;;7.47;5.20;;;;;;;;;;4959954;23;20765;-77
2022/01/23 18:54:45;;;;;;;7.50;5.20;;;;;;;;;;4903998;29;20525;-77
2022/01/23 18:57:21;;;;;;;8.23;5.67;;;;;;;;;;4920129;29;20183;-77
2022/01/23 19:00:13;;;;;;;7.40;5.13;;;;;;;;;;4919791;29;20174;-77
2022/01/23 19:02:46;;;;;;;7.10;4.87;;;;;;;;;;4919856;29;20578;-77